YGIL weather

Public forecast

Using degrees Celsius for public forecast. Weather courtesy of forecast.io.

Closest aviation weather report (METAR) to Gilgandra Airport

Closest report is Dubbo City Regional Airport, 31.0 nm (57.4 km) S. Retrieved 2020/08/11 00:30 UTC (13 minutes ago):

YSDU 110030Z AUTO 08009KT 9999 // NCD 13/06 Q1021 RF000/0000

Closest aviation forecast (TAF) to Gilgandra Airport

Closest forecast is Dubbo City Regional Airport, 31.0 nm (57.4 km) S. Retrieved 2020-08-11 00:36 UTC (7 minutes ago):

TAF YSDU 102321Z 1100/1118 08008KT CAVOK FM110400 04006KT CAVOK FM110800 VRB03KT CAVOK